Time;durP1;ratioP1;P1;durP2;ratioP2;P2;SDS_P1;SDS_P2;PMS_P1;PMS_P2;Temp;Humidity;BMP_temperature;BMP_pressure;BME280_temperature;BME280_humidity;BME280_pressure;Samples;Min_cycle;Max_cycle;Signal;HPM_P1;HPM_P2
2023/05/26 00:01:52;;;;;;;28.20;7.83;;;12.00;59.60;;;;;;5093392;28;20187;-70
2023/05/26 00:04:18;;;;;;;27.03;8.03;;;12.00;58.90;;;;;;5093303;28;20200;-69
2023/05/26 00:06:46;;;;;;;23.27;8.20;;;11.90;59.30;;;;;;5092443;28;20186;-67
2023/05/26 00:09:12;;;;;;;30.73;8.60;;;11.80;64.30;;;;;;5093234;28;20176;-68
2023/05/26 00:11:38;;;;;;;30.80;9.30;;;11.90;65.70;;;;;;5093079;28;20175;-68
2023/05/26 00:14:03;;;;;;;20.83;8.23;;;11.80;68.40;;;;;;5093158;28;20164;-67
2023/05/26 00:16:29;;;;;;;26.07;8.23;;;11.80;72.20;;;;;;5093519;28;20207;-69
2023/05/26 00:18:55;;;;;;;31.13;8.33;;;11.80;74.30;;;;;;5093161;28;20513;-67
2023/05/26 00:21:20;;;;;;;24.13;8.93;;;11.70;72.00;;;;;;5093162;28;20649;-67
2023/05/26 00:23:46;;;;;;;22.33;8.27;;;11.70;75.90;;;;;;5093242;28;20160;-68
2023/05/26 00:26:11;;;;;;;29.70;8.73;;;11.70;77.50;;;;;;5092815;28;20175;-68
2023/05/26 00:28:38;;;;;;;25.03;8.20;;;11.70;77.20;;;;;;5093292;28;20626;-68
2023/05/26 00:31:03;;;;;;;26.87;9.10;;;11.60;78.80;;;;;;5093107;28;20172;-67
2023/05/26 00:33:29;;;;;;;29.00;8.87;;;11.60;77.00;;;;;;5092718;28;20223;-68
2023/05/26 00:35:55;;;;;;;23.90;8.00;;;11.60;78.00;;;;;;5093162;28;20168;-67
2023/05/26 00:38:20;;;;;;;33.70;9.33;;;11.60;78.60;;;;;;5091898;28;20179;-69
2023/05/26 00:40:46;;;;;;;30.63;8.87;;;11.50;78.70;;;;;;5092868;28;20237;-68
2023/05/26 00:43:11;;;;;;;25.77;8.20;;;11.50;80.00;;;;;;5093145;28;20172;-69
2023/05/26 00:45:37;;;;;;;36.70;9.43;;;11.50;80.10;;;;;;5091638;28;20175;-68
2023/05/26 00:48:04;;;;;;;29.27;8.67;;;11.40;84.80;;;;;;5093054;28;20642;-69
2023/05/26 00:50:30;;;;;;;29.83;8.03;;;11.40;85.50;;;;;;5093072;28;20263;-68
2023/05/26 00:52:57;;;;;;;29.83;8.27;;;11.40;88.20;;;;;;5093145;28;20200;-68
2023/05/26 00:55:23;;;;;;;27.13;9.00;;;11.30;89.50;;;;;;5092758;28;20182;-68
2023/05/26 00:57:50;;;;;;;25.23;8.27;;;11.40;90.20;;;;;;5092885;28;20237;-68
2023/05/26 01:00:16;;;;;;;23.73;8.33;;;11.30;90.30;;;;;;5092598;28;20247;-68
2023/05/26 01:02:46;;;;;;;25.83;8.33;;;11.30;92.20;;;;;;5092852;28;20191;-68
2023/05/26 01:05:15;;;;;;;29.17;8.93;;;11.20;92.50;;;;;;5092972;28;20172;-67
2023/05/26 01:07:42;;;;;;;30.97;9.17;;;11.20;93.00;;;;;;5094790;28;20175;-68
2023/05/26 01:10:08;;;;;;;24.40;8.53;;;11.20;93.50;;;;;;5096324;28;20292;-68
2023/05/26 01:12:48;;;;;;;28.57;9.07;;;11.10;95.00;;;;;;5096552;28;20168;-68
2023/05/26 01:15:21;;;;;;;31.57;8.77;;;11.10;96.00;;;;;;5096393;28;20255;-67
2023/05/26 01:18:02;;;;;;;24.97;7.77;;;11.10;95.80;;;;;;5096718;28;20172;-68
2023/05/26 01:20:45;;;;;;;24.37;8.60;;;11.10;97.20;;;;;;5096496;28;20724;-68
2023/05/26 01:23:32;;;;;;;24.30;8.20;;;11.00;96.40;;;;;;5095974;28;20669;-67
2023/05/26 01:26:16;;;;;;;28.70;8.07;;;11.00;98.40;;;;;;5096335;28;20174;-68
2023/05/26 01:28:43;;;;;;;28.13;8.37;;;11.00;99.80;;;;;;5096417;28;20199;-68
2023/05/26 01:31:09;;;;;;;21.77;7.57;;;10.90;99.90;;;;;;5096384;28;20172;-68
2023/05/26 01:33:35;;;;;;;29.30;9.00;;;10.90;99.90;;;;;;5095917;28;20234;-67
2023/05/26 01:36:02;;;;;;;28.10;8.80;;;10.90;99.90;;;;;;5095990;28;20630;-67
2023/05/26 01:38:28;;;;;;;23.23;7.47;;;10.80;99.90;;;;;;5095721;28;20172;-67
2023/05/26 01:41:22;;;;;;;28.93;7.97;;;10.80;99.90;;;;;;5095933;28;20210;-68
2023/05/26 01:44:05;;;;;;;27.10;8.07;;;10.80;99.90;;;;;;5095815;28;20209;-68
2023/05/26 01:46:49;;;;;;;30.20;7.97;;;10.70;99.90;;;;;;5095743;28;20168;-68
2023/05/26 01:49:16;;;;;;;27.73;8.63;;;10.70;99.90;;;;;;5095848;28;20168;-67
2023/05/26 01:51:51;;;;;;;29.27;8.23;;;10.70;99.90;;;;;;5095519;28;20576;-67
2023/05/26 01:54:19;;;;;;;31.63;8.43;;;10.70;99.90;;;;;;5095890;28;20160;-67
2023/05/26 01:56:46;;;;;;;23.90;7.10;;;10.60;99.90;;;;;;5095507;28;20172;-67
2023/05/26 01:59:12;;;;;;;24.67;7.57;;;10.60;99.90;;;;;;5095422;28;20207;-67
2023/05/26 02:01:38;;;;;;;27.50;8.40;;;10.50;99.90;;;;;;5095621;28;20210;-67
2023/05/26 02:04:04;;;;;;;33.20;8.37;;;10.60;99.90;;;;;;5095631;28;20499;-67
2023/05/26 02:06:29;;;;;;;24.17;7.67;;;10.50;99.90;;;;;;5094109;28;20178;-67
2023/05/26 02:08:55;;;;;;;34.50;8.17;;;10.50;99.90;;;;;;5095389;28;20190;-67
2023/05/26 02:11:21;;;;;;;29.00;7.87;;;10.50;99.90;;;;;;5094006;28;20190;-67
2023/05/26 02:13:48;;;;;;;28.93;8.10;;;10.40;99.90;;;;;;5095243;28;20611;-67
2023/05/26 02:16:13;;;;;;;29.40;8.30;;;10.40;99.90;;;;;;5095191;28;20237;-67
2023/05/26 02:18:40;;;;;;;27.57;7.53;;;10.30;99.90;;;;;;5094237;28;20510;-67
2023/05/26 02:21:05;;;;;;;22.33;7.47;;;10.30;99.90;;;;;;5094674;28;20666;-68
2023/05/26 02:23:31;;;;;;;27.83;7.80;;;10.30;99.90;;;;;;5095053;28;20213;-67
2023/05/26 02:25:57;;;;;;;30.97;7.43;;;10.30;99.90;;;;;;5095061;28;20214;-67
2023/05/26 02:28:22;;;;;;;33.87;7.97;;;10.20;99.90;;;;;;5095115;28;20171;-67
2023/05/26 02:30:48;;;;;;;50.80;9.63;;;10.20;99.90;;;;;;5095143;28;20171;-67
2023/05/26 02:33:13;;;;;;;38.03;8.93;;;10.20;99.90;;;;;;5094754;28;20679;-68
2023/05/26 02:35:39;;;;;;;31.77;8.40;;;10.20;99.90;;;;;;5094606;28;20206;-68
2023/05/26 02:38:05;;;;;;;23.10;7.13;;;10.20;99.90;;;;;;5094946;28;20623;-68
2023/05/26 02:40:30;;;;;;;26.67;7.37;;;10.20;99.90;;;;;;5094758;28;20208;-68
2023/05/26 02:42:58;;;;;;;26.90;7.23;;;10.20;99.90;;;;;;5094585;28;20204;-67
2023/05/26 02:45:23;;;;;;;24.90;6.13;;;10.10;99.90;;;;;;5094817;28;20168;-68
2023/05/26 02:47:49;;;;;;;23.50;7.03;;;10.10;99.90;;;;;;5094683;28;20597;-68
2023/05/26 02:50:14;;;;;;;21.13;7.27;;;10.10;99.90;;;;;;5094181;28;20182;-68
2023/05/26 02:52:40;;;;;;;34.83;7.97;;;10.10;99.90;;;;;;5094522;28;20200;-68
2023/05/26 02:55:09;;;;;;;27.53;7.63;;;10.00;99.90;;;;;;5094588;28;20622;-68
2023/05/26 02:57:35;;;;;;;26.30;7.33;;;10.00;99.90;;;;;;5094424;28;20262;-68
2023/05/26 03:00:01;;;;;;;27.47;7.17;;;10.00;99.90;;;;;;5094360;28;20287;-68
2023/05/26 03:02:26;;;;;;;25.97;7.47;;;9.90;99.90;;;;;;5094210;28;20179;-68
2023/05/26 03:04:52;;;;;;;26.13;7.70;;;9.90;99.90;;;;;;5094095;28;20194;-68
2023/05/26 03:07:18;;;;;;;29.10;7.27;;;9.90;99.90;;;;;;5094458;28;20500;-68
2023/05/26 03:09:43;;;;;;;24.47;6.87;;;9.90;99.90;;;;;;5093999;28;20225;-68
2023/05/26 03:12:12;;;;;;;22.23;7.53;;;9.90;99.90;;;;;;5094059;28;20174;-68
2023/05/26 03:14:37;;;;;;;26.57;6.73;;;9.90;99.90;;;;;;5093835;28;20180;-68
2023/05/26 03:17:03;;;;;;;25.23;6.83;;;9.80;99.90;;;;;;5093902;28;20169;-68
2023/05/26 03:19:29;;;;;;;28.03;7.37;;;9.80;99.90;;;;;;5093365;28;20210;-68
2023/05/26 03:21:55;;;;;;;37.07;8.53;;;9.80;99.90;;;;;;5093535;28;20199;-68
2023/05/26 03:24:21;;;;;;;26.33;7.20;;;9.80;99.90;;;;;;5093703;28;20175;-68
2023/05/26 03:26:46;;;;;;;29.10;7.47;;;9.80;99.90;;;;;;5093907;28;20535;-69
2023/05/26 03:29:13;;;;;;;29.80;7.40;;;9.70;99.90;;;;;;5093517;28;20183;-67
2023/05/26 03:31:40;;;;;;;28.07;8.13;;;9.70;99.90;;;;;;5093275;28;20208;-68
2023/05/26 03:34:05;;;;;;;31.43;7.70;;;9.70;99.90;;;;;;5093089;28;20171;-67
2023/05/26 03:36:31;;;;;;;30.40;7.50;;;9.70;99.90;;;;;;5093735;28;20183;-68
2023/05/26 03:38:56;;;;;;;28.97;7.30;;;9.70;99.90;;;;;;5093323;28;20558;-68
2023/05/26 03:41:22;;;;;;;26.70;7.63;;;9.70;99.90;;;;;;5093506;28;20203;-67
2023/05/26 03:43:48;;;;;;;25.90;7.33;;;9.60;99.90;;;;;;5093559;28;20254;-67
2023/05/26 03:46:13;;;;;;;31.13;7.97;;;9.60;99.90;;;;;;5093509;28;20167;-67
2023/05/26 03:48:39;;;;;;;30.60;8.10;;;9.60;99.90;;;;;;5092938;28;20193;-67
2023/05/26 03:51:05;;;;;;;20.87;6.87;;;9.60;99.90;;;;;;5093494;28;20178;-67
2023/05/26 03:53:30;;;;;;;21.57;5.97;;;9.60;99.90;;;;;;5092957;28;20478;-67
2023/05/26 03:55:56;;;;;;;24.17;7.30;;;9.50;99.90;;;;;;5093170;28;20172;-67
2023/05/26 03:58:22;;;;;;;32.13;7.70;;;9.60;99.90;;;;;;5093077;28;20187;-68
2023/05/26 04:00:48;;;;;;;22.27;6.83;;;9.60;99.90;;;;;;5093213;28;20207;-68
2023/05/26 04:03:14;;;;;;;28.30;7.47;;;9.60;99.90;;;;;;5092637;28;20270;-69
2023/05/26 04:05:40;;;;;;;32.77;8.37;;;9.60;99.90;;;;;;5092826;28;20203;-68
2023/05/26 04:08:05;;;;;;;34.33;7.67;;;9.70;99.90;;;;;;5092749;28;20175;-68
2023/05/26 04:10:31;;;;;;;26.50;7.20;;;9.80;99.90;;;;;;5092772;28;20175;-68
2023/05/26 04:12:57;;;;;;;31.07;7.70;;;9.70;99.90;;;;;;5092589;28;20277;-68
2023/05/26 04:15:22;;;;;;;26.87;7.63;;;9.80;99.90;;;;;;5092834;28;20175;-68
2023/05/26 04:17:48;;;;;;;29.97;7.20;;;9.80;99.90;;;;;;5091012;28;20176;-68
2023/05/26 04:20:13;;;;;;;31.77;7.67;;;9.90;99.90;;;;;;5092813;28;20211;-68
2023/05/26 04:22:39;;;;;;;29.83;7.60;;;10.10;99.90;;;;;;5092628;28;20205;-68
2023/05/26 04:25:07;;;;;;;21.00;6.20;;;10.10;99.90;;;;;;5092784;28;20172;-71
2023/05/26 04:27:35;;;;;;;26.33;5.80;;;10.10;99.90;;;;;;5092599;28;20179;-68
2023/05/26 04:30:04;;;;;;;33.87;7.93;;;10.10;99.90;;;;;;5092759;28;20179;-69
2023/05/26 04:32:29;;;;;;;29.30;7.73;;;10.30;99.90;;;;;;5091826;28;20247;-68
2023/05/26 04:34:58;;;;;;;28.23;7.77;;;10.50;99.90;;;;;;5092667;28;20225;-68
2023/05/26 04:37:24;;;;;;;28.00;7.20;;;10.60;96.50;;;;;;5092755;28;20172;-68
2023/05/26 04:39:50;;;;;;;32.60;7.30;;;10.60;93.40;;;;;;5092665;28;20211;-69
2023/05/26 04:42:16;;;;;;;26.60;6.67;;;10.70;94.50;;;;;;5094242;28;20195;-69
2023/05/26 04:44:43;;;;;;;28.70;6.50;;;11.10;82.40;;;;;;5095604;28;20513;-68
2023/05/26 04:47:09;;;;;;;25.20;6.80;;;11.10;57.00;;;;;;5096195;28;20249;-68
2023/05/26 04:49:35;;;;;;;26.70;6.73;;;11.10;58.00;;;;;;5096593;28;20171;-69
2023/05/26 04:52:02;;;;;;;24.60;7.20;;;11.30;53.40;;;;;;5096087;28;20203;-69
2023/05/26 04:54:27;;;;;;;26.57;7.13;;;11.20;54.70;;;;;;5096540;28;20229;-69
2023/05/26 04:56:53;;;;;;;20.83;6.77;;;11.50;45.80;;;;;;5096401;28;20172;-69
2023/05/26 04:59:21;;;;;;;25.37;6.57;;;11.80;25.30;;;;;;5095862;28;20203;-68
2023/05/26 05:01:47;;;;;;;31.57;7.57;;;11.80;20.10;;;;;;5095379;28;20200;-68
2023/05/26 05:04:13;;;;;;;27.03;6.57;;;11.70;27.00;;;;;;5095998;28;20176;-68
2023/05/26 05:06:39;;;;;;;27.40;7.13;;;11.90;19.80;;;;;;5095715;28;20176;-68
2023/05/26 05:09:05;;;;;;;29.30;6.87;;;12.20;12.60;;;;;;5095658;28;20682;-69
2023/05/26 05:11:31;;;;;;;15.77;4.90;;;12.40;1.40;;;;;;5096069;28;20172;-68
2023/05/26 05:13:57;;;;;;;22.07;6.40;;;12.40;1.00;;;;;;5095798;28;20187;-70
2023/05/26 05:16:23;;;;;;;28.70;7.37;;;12.40;2.70;;;;;;5095507;28;20176;-69
2023/05/26 05:18:49;;;;;;;29.00;7.43;;;12.90;1.00;;;;;;5095517;28;20675;-69
2023/05/26 05:21:14;;;;;;;19.50;5.70;;;13.50;1.00;;;;;;5095347;28;20642;-69
2023/05/26 05:23:40;;;;;;;28.47;6.27;;;13.60;1.00;;;;;;5094665;28;20171;-68
2023/05/26 05:26:06;;;;;;;21.90;6.33;;;13.70;1.00;;;;;;5095411;28;20183;-69
2023/05/26 05:28:31;;;;;;;15.53;6.23;;;13.60;1.00;;;;;;5095443;28;20168;-70
2023/05/26 05:30:57;;;;;;;23.30;6.33;;;13.10;1.00;;;;;;5094640;28;20187;-69
2023/05/26 05:33:22;;;;;;;25.53;7.10;;;12.90;1.00;;;;;;5095327;28;20246;-69
2023/05/26 05:35:48;;;;;;;24.23;6.63;;;12.90;1.00;;;;;;5095523;28;20574;-70
2023/05/26 05:38:14;;;;;;;28.07;7.20;;;13.20;1.00;;;;;;5094219;28;20168;-68
2023/05/26 05:40:40;;;;;;;26.60;7.10;;;13.60;1.00;;;;;;5094450;28;20650;-67
2023/05/26 05:43:05;;;;;;;26.17;6.47;;;14.20;1.00;;;;;;5094869;28;20243;-68
2023/05/26 05:45:31;;;;;;;24.77;6.77;;;14.20;1.00;;;;;;5094687;28;20180;-68
2023/05/26 05:47:56;;;;;;;25.50;7.43;;;14.00;1.00;;;;;;5095174;28;20180;-69
2023/05/26 05:50:22;;;;;;;22.67;6.60;;;14.50;1.00;;;;;;5094013;28;20664;-69
2023/05/26 05:52:48;;;;;;;26.27;6.67;;;14.60;1.00;;;;;;5094230;28;20172;-68
2023/05/26 05:55:15;;;;;;;20.97;6.10;;;15.10;1.00;;;;;;5094471;28;20179;-68
2023/05/26 05:57:40;;;;;;;20.33;6.33;;;15.30;1.00;;;;;;5094577;28;20263;-70
2023/05/26 06:00:09;;;;;;;28.53;6.60;;;16.20;1.00;;;;;;5093641;28;20629;-71
2023/05/26 06:02:36;;;;;;;22.77;6.90;;;16.60;99.90;;;;;;5094237;28;20200;-69
2023/05/26 06:05:02;;;;;;;20.10;5.87;;;16.70;1.00;;;;;;5093574;28;20175;-69
2023/05/26 06:07:27;;;;;;;23.40;6.77;;;16.20;99.90;;;;;;5094196;28;20606;-69
2023/05/26 06:09:53;;;;;;;18.17;6.40;;;15.20;1.00;;;;;;5093588;28;20541;-69
2023/05/26 06:12:18;;;;;;;21.33;6.80;;;15.20;1.00;;;;;;5093777;28;20175;-69
2023/05/26 06:14:44;;;;;;;24.87;6.57;;;15.90;1.00;;;;;;5094075;28;20536;-71
2023/05/26 06:17:10;;;;;;;23.83;6.23;;;16.00;99.90;;;;;;5094218;28;20175;-70
2023/05/26 06:19:35;;;;;;;18.17;6.77;;;16.10;99.90;;;;;;5093928;28;20219;-70
2023/05/26 06:22:01;;;;;;;18.87;6.73;;;16.40;1.00;;;;;;5093424;28;20255;-69
2023/05/26 06:24:26;;;;;;;24.00;6.77;;;16.70;1.00;;;;;;5093863;28;20553;-71
2023/05/26 06:26:52;;;;;;;22.00;6.83;;;16.70;1.00;;;;;;5093426;28;20160;-72
2023/05/26 06:29:18;;;;;;;22.73;7.07;;;16.70;1.00;;;;;;5093927;28;20156;-69
2023/05/26 06:31:43;;;;;;;24.47;7.27;;;17.20;99.90;;;;;;5093399;28;20227;-71
2023/05/26 06:34:09;;;;;;;20.53;6.73;;;16.90;1.00;;;;;;5093634;28;20305;-71
2023/05/26 06:36:35;;;;;;;20.45;7.10;;;17.00;1.00;;;;;;5094587;28;20703;-71
2023/05/26 06:39:01;;;;;;;22.70;6.78;;;17.40;99.90;;;;;;5093462;28;20255;-70
2023/05/26 06:41:27;;;;;;;25.30;7.32;;;17.70;1.00;;;;;;5093420;28;20310;-72
2023/05/26 06:43:53;;;;;;;22.90;6.93;;;17.30;1.00;;;;;;5093121;28;20176;-71
2023/05/26 06:46:18;;;;;;;24.85;7.30;;;18.10;1.00;;;;;;5093415;28;20454;-71
2023/05/26 06:48:44;;;;;;;15.63;5.95;;;18.70;1.00;;;;;;5093310;28;20160;-71
2023/05/26 06:51:10;;;;;;;23.85;7.53;;;18.00;1.00;;;;;;5091692;28;20172;-70
2023/05/26 06:53:37;;;;;;;23.80;6.57;;;17.50;1.00;;;;;;5093257;28;20255;-71
2023/05/26 06:56:03;;;;;;;20.95;6.32;;;18.00;99.90;;;;;;5093073;28;20541;-71
2023/05/26 06:58:29;;;;;;;19.88;6.68;;;18.70;1.00;;;;;;5093291;28;20645;-72
2023/05/26 07:01:04;;;;;;;22.92;7.15;;;17.80;99.90;;;;;;5093179;28;20204;-71
2023/05/26 07:03:30;;;;;;;23.58;7.10;;;19.30;99.90;;;;;;5093171;28;20529;-72
2023/05/26 07:05:57;;;;;;;17.98;5.85;;;20.00;99.90;;;;;;5092830;28;20240;-71
2023/05/26 07:08:23;;;;;;;17.67;6.50;;;20.50;1.00;;;;;;5093585;28;20172;-73
2023/05/26 07:10:49;;;;;;;21.40;6.75;;;20.70;1.00;;;;;;5093236;28;20196;-73
2023/05/26 07:13:15;;;;;;;19.83;6.80;;;21.30;99.90;;;;;;5093225;28;20650;-72
2023/05/26 07:15:42;;;;;;;20.90;6.20;;;21.60;5.30;;;;;;5092836;28;20646;-72
2023/05/26 07:18:08;;;;;;;22.05;6.60;;;20.90;1.00;;;;;;5092920;28;20188;-72
2023/05/26 07:20:34;;;;;;;18.48;6.32;;;21.20;64.30;;;;;;5093197;28;20333;-72
2023/05/26 07:23:00;;;;;;;18.45;5.72;;;20.90;1.00;;;;;;5093343;28;20285;-72
2023/05/26 07:25:25;;;;;;;19.55;6.72;;;20.50;79.60;;;;;;5092800;28;20209;-71
2023/05/26 07:27:51;;;;;;;20.02;6.43;;;19.90;99.90;;;;;;5093248;28;20196;-72
2023/05/26 07:30:18;;;;;;;26.80;7.15;;;19.90;1.00;;;;;;5092878;28;20174;-72
2023/05/26 07:32:44;;;;;;;24.48;7.22;;;19.80;1.00;;;;;;5092832;28;20215;-72
2023/05/26 07:35:09;;;;;;;15.27;6.22;;;20.30;99.90;;;;;;5092778;28;20560;-72
2023/05/26 07:37:35;;;;;;;16.92;6.07;;;19.10;1.00;;;;;;5092951;28;20168;-71
2023/05/26 07:40:03;;;;;;;19.83;7.25;;;18.20;26.60;;;;;;5092385;28;20290;-70
2023/05/26 07:42:28;;;;;;;19.77;6.82;;;17.90;99.90;;;;;;5092446;28;20176;-72
2023/05/26 07:44:55;;;;;;;18.73;6.10;;;18.80;67.80;;;;;;5093019;28;20174;-72
2023/05/26 07:47:21;;;;;;;26.02;7.07;;;20.10;1.00;;;;;;5092312;28;20176;-72
2023/05/26 07:49:46;;;;;;;16.42;6.18;;;20.70;99.90;;;;;;5092784;28;20164;-72
2023/05/26 07:52:12;;;;;;;19.00;6.35;;;19.60;1.00;;;;;;5092354;28;20168;-71
2023/05/26 07:54:37;;;;;;;19.10;6.20;;;20.50;99.90;;;;;;5092125;28;20167;-72
2023/05/26 07:57:03;;;;;;;18.23;6.00;;;19.70;99.90;;;;;;5092952;28;20160;-72
2023/05/26 07:59:29;;;;;;;21.23;6.88;;;19.30;1.00;;;;;;5092293;28;20666;-72
2023/05/26 08:01:55;;;;;;;20.58;6.90;;;19.20;1.00;;;;;;5092960;28;20215;-72
2023/05/26 08:04:20;;;;;;;19.67;6.47;;;19.70;1.00;;;;;;5092541;28;20160;-74
2023/05/26 08:06:46;;;;;;;19.63;6.93;;;20.70;99.90;;;;;;5092511;28;20207;-72
2023/05/26 08:09:12;;;;;;;15.90;6.10;;;21.20;3.30;;;;;;5091914;28;20164;-72
2023/05/26 08:11:37;;;;;;;21.35;6.75;;;20.90;33.90;;;;;;5091970;28;20180;-73
2023/05/26 08:14:03;;;;;;;18.98;5.88;;;20.70;99.90;;;;;;5091936;28;20594;-72
2023/05/26 08:16:28;;;;;;;15.95;6.60;;;21.20;1.00;;;;;;5091742;28;20224;-72
2023/05/26 08:18:54;;;;;;;13.68;5.80;;;20.80;30.90;;;;;;5092746;28;20612;-73
2023/05/26 08:21:20;;;;;;;18.88;5.78;;;20.40;99.90;;;;;;5092831;28;20211;-71
2023/05/26 08:23:46;;;;;;;15.07;5.82;;;20.30;99.90;;;;;;5091887;28;20180;-71
2023/05/26 08:26:11;;;;;;;22.10;6.60;;;20.60;39.10;;;;;;5092587;28;20222;-72
2023/05/26 08:28:37;;;;;;;16.20;6.18;;;20.70;1.00;;;;;;5092428;28;20638;-72
2023/05/26 08:31:03;;;;;;;16.65;6.30;;;21.10;1.00;;;;;;5092804;28;20263;-72
2023/05/26 08:33:28;;;;;;;19.60;6.90;;;20.40;1.00;;;;;;5091521;28;20268;-72
2023/05/26 08:35:54;;;;;;;18.67;6.57;;;20.30;1.00;;;;;;5092517;28;20250;-72
2023/05/26 08:38:20;;;;;;;15.88;5.53;;;20.00;47.30;;;;;;5092334;28;20164;-72
2023/05/26 08:40:50;;;;;;;19.40;6.57;;;20.30;1.00;;;;;;5092120;28;20207;-71
2023/05/26 08:43:19;;;;;;;17.40;6.60;;;21.00;1.00;;;;;;5091228;28;20168;-73
2023/05/26 08:45:46;;;;;;;18.77;5.72;;;20.90;1.00;;;;;;5091943;28;20204;-73
2023/05/26 08:48:12;;;;;;;21.65;5.93;;;21.10;1.00;;;;;;5091933;28;20176;-72
2023/05/26 08:50:38;;;;;;;21.33;6.72;;;21.00;1.00;;;;;;5092362;28;20712;-73
2023/05/26 08:53:04;;;;;;;17.08;5.93;;;21.40;1.00;;;;;;5092120;28;20180;-73
2023/05/26 08:55:33;;;;;;;15.55;5.65;;;21.80;1.00;;;;;;5091605;28;20647;-72
2023/05/26 08:58:00;;;;;;;18.65;6.35;;;20.80;1.00;;;;;;5092174;28;20176;-73
2023/05/26 09:00:30;;;;;;;19.80;6.65;;;20.00;1.00;;;;;;5091998;28;20649;-73
2023/05/26 09:03:01;;;;;;;22.52;7.07;;;20.60;1.00;;;;;;5091670;28;20701;-73
2023/05/26 09:05:30;;;;;;;15.25;6.20;;;21.10;1.00;;;;;;5092297;28;20164;-72
2023/05/26 09:07:56;;;;;;;16.95;6.47;;;21.50;1.00;;;;;;5091673;28;20198;-73
2023/05/26 09:10:32;;;;;;;20.15;6.65;;;20.90;1.00;;;;;;5092049;28;20726;-72
2023/05/26 09:13:03;;;;;;;20.20;6.70;;;21.80;1.00;;;;;;5091884;28;20226;-72
2023/05/26 09:15:29;;;;;;;21.17;6.88;;;22.10;1.00;;;;;;5091472;28;20172;-72
2023/05/26 09:18:12;;;;;;;20.48;6.90;;;22.90;1.00;;;;;;5092199;28;20168;-73
2023/05/26 09:20:43;;;;;;;22.90;6.45;;;21.90;1.00;;;;;;5091987;28;20247;-72
2023/05/26 09:23:09;;;;;;;16.35;6.75;;;21.50;1.00;;;;;;5091574;28;20190;-73
2023/05/26 09:25:36;;;;;;;19.48;6.38;;;21.80;1.00;;;;;;5091412;28;20266;-72
2023/05/26 09:28:10;;;;;;;19.02;6.20;;;21.50;1.00;;;;;;5092876;28;20250;-72
2023/05/26 09:30:44;;;;;;;17.05;6.53;;;21.70;1.00;;;;;;5095021;28;20183;-71
2023/05/26 09:33:16;;;;;;;13.52;5.97;;;22.00;1.00;;;;;;5094980;28;20714;-73
2023/05/26 09:35:46;;;;;;;19.60;6.35;;;22.40;1.00;;;;;;5095674;28;20176;-71
2023/05/26 09:38:14;;;;;;;20.20;7.60;;;22.50;1.00;;;;;;5095212;28;20164;-72
2023/05/26 09:40:41;;;;;;;20.58;7.30;;;22.10;1.00;;;;;;5095194;28;20206;-71
2023/05/26 09:43:07;;;;;;;13.82;5.90;;;21.80;1.00;;;;;;5095287;28;20178;-72
2023/05/26 09:45:35;;;;;;;16.50;5.63;;;21.60;99.90;;;;;;5093863;28;20164;-73
2023/05/26 09:48:05;;;;;;;16.38;5.60;;;21.40;99.90;;;;;;5094923;28;20180;-72
2023/05/26 09:50:32;;;;;;;20.25;6.53;;;20.60;1.00;;;;;;5095239;28;20688;-72
2023/05/26 09:53:00;;;;;;;19.02;5.90;;;21.40;1.00;;;;;;5094793;28;20200;-71
2023/05/26 09:55:26;;;;;;;18.42;6.50;;;21.50;99.90;;;;;;5094964;28;20179;-71
2023/05/26 09:57:53;;;;;;;21.90;6.47;;;21.40;99.90;;;;;;5095254;28;20542;-72
2023/05/26 10:00:21;;;;;;;16.52;6.13;;;21.30;1.00;;;;;;5094463;28;20191;-72
2023/05/26 10:02:47;;;;;;;9.88;4.82;;;21.40;99.90;;;;;;5094187;28;20183;-72
2023/05/26 10:05:14;;;;;;;15.80;5.80;;;20.80;99.90;;;;;;5093287;28;20615;-72
2023/05/26 10:07:43;;;;;;;16.80;5.90;;;20.80;1.00;;;;;;5094490;28;20176;-72
2023/05/26 10:10:13;;;;;;;18.00;6.00;;;21.40;1.00;;;;;;5095078;28;20199;-72
2023/05/26 10:12:40;;;;;;;13.23;4.88;;;20.70;99.90;;;;;;5093081;28;20172;-72
2023/05/26 10:15:06;;;;;;;19.17;6.30;;;19.90;1.00;;;;;;5094693;28;20191;-73
2023/05/26 10:17:31;;;;;;;11.48;5.30;;;20.30;1.00;;;;;;5093760;28;20180;-72
2023/05/26 10:19:58;;;;;;;18.15;6.07;;;20.30;1.00;;;;;;5093967;28;20202;-71
2023/05/26 10:22:33;;;;;;;20.42;6.03;;;20.00;1.00;;;;;;5094409;28;20525;-71
2023/05/26 10:25:03;;;;;;;21.90;6.53;;;20.10;1.00;;;;;;5092938;28;20641;-72
2023/05/26 10:27:36;;;;;;;19.50;5.32;;;20.10;1.00;;;;;;5094573;28;20627;-72
2023/05/26 10:30:08;;;;;;;14.68;5.70;;;20.30;1.00;;;;;;5093770;28;20171;-73
2023/05/26 10:32:51;;;;;;;16.10;5.57;;;20.30;99.90;;;;;;5093832;28;20306;-72
2023/05/26 10:35:27;;;;;;;16.38;6.13;;;19.70;1.00;;;;;;5094151;28;20191;-72
2023/05/26 10:37:55;;;;;;;17.15;6.53;;;20.00;1.00;;;;;;5093723;28;20175;-72
2023/05/26 10:40:32;;;;;;;18.08;6.03;;;21.00;1.00;;;;;;5092837;28;20237;-72
2023/05/26 10:43:11;;;;;;;14.95;5.72;;;21.80;1.00;;;;;;5094061;28;20167;-72
2023/05/26 10:45:49;;;;;;;16.17;5.97;;;21.10;99.90;;;;;;5093570;28;20171;-71
2023/05/26 10:48:16;;;;;;;12.25;5.70;;;20.00;1.00;;;;;;5093294;28;20552;-72
2023/05/26 10:50:54;;;;;;;16.50;5.57;;;20.60;1.00;;;;;;5092879;28;20236;-71
2023/05/26 10:53:24;;;;;;;17.27;5.93;;;20.70;1.00;;;;;;5093924;28;20190;-72
2023/05/26 10:55:55;;;;;;;12.43;4.93;;;20.80;99.90;;;;;;5093336;28;20270;-73
2023/05/26 10:58:26;;;;;;;17.63;5.18;;;19.90;99.90;;;;;;5093377;28;20647;-71
2023/05/26 11:01:00;;;;;;;14.80;5.22;;;19.80;99.90;;;;;;5094011;28;20264;-71
2023/05/26 11:03:38;;;;;;;17.05;5.90;;;19.60;1.00;;;;;;5092868;28;20237;-72
2023/05/26 11:06:08;;;;;;;19.58;6.18;;;19.70;1.00;;;;;;5093688;28;20176;-70
2023/05/26 11:08:38;;;;;;;20.80;6.28;;;20.30;1.00;;;;;;5093063;28;20500;-72
2023/05/26 11:11:09;;;;;;;14.23;5.32;;;20.60;1.00;;;;;;5093483;28;20168;-71
2023/05/26 11:13:45;;;;;;;13.23;5.47;;;19.60;99.90;;;;;;5093420;28;20178;-71
2023/05/26 11:16:16;;;;;;;15.75;5.45;;;19.90;99.90;;;;;;5093224;28;20479;-71
2023/05/26 11:18:50;;;;;;;20.70;6.00;;;19.80;99.90;;;;;;5093230;28;20168;-72
2023/05/26 11:21:17;;;;;;;12.95;5.32;;;19.90;99.90;;;;;;5093302;28;20219;-72
2023/05/26 11:23:45;;;;;;;17.50;5.60;;;20.40;99.90;;;;;;5093020;28;20263;-71
2023/05/26 11:26:12;;;;;;;11.45;3.95;;;20.20;99.90;;;;;;5093361;28;20176;-71
2023/05/26 11:28:45;;;;;;;13.77;5.55;;;19.90;99.90;;;;;;5093243;28;20160;-71
2023/05/26 11:31:16;;;;;;;16.23;5.10;;;20.10;99.90;;;;;;5092724;28;20224;-70
2023/05/26 11:33:43;;;;;;;15.30;5.13;;;20.40;99.90;;;;;;5092269;28;20201;-71
2023/05/26 11:36:19;;;;;;;10.00;4.35;;;19.80;99.90;;;;;;5093303;28;20221;-70
2023/05/26 11:38:58;;;;;;;12.98;4.60;;;19.60;99.90;;;;;;5093592;28;20172;-71
2023/05/26 11:41:25;;;;;;;14.18;4.70;;;19.60;99.90;;;;;;5092867;28;20528;-71
2023/05/26 11:43:56;;;;;;;11.65;4.65;;;19.50;99.90;;;;;;5092912;28;20175;-71
2023/05/26 11:46:23;;;;;;;11.82;4.47;;;19.80;99.90;;;;;;5092179;28;20629;-72
2023/05/26 11:48:48;;;;;;;16.73;5.60;;;19.30;99.90;;;;;;5091451;28;20253;-71
2023/05/26 11:51:19;;;;;;;10.70;4.53;;;18.90;99.90;;;;;;5092820;28;20206;-71
2023/05/26 11:53:47;;;;;;;18.25;5.55;;;19.30;99.90;;;;;;5092899;28;20653;-72
2023/05/26 11:56:16;;;;;;;13.80;4.82;;;19.40;99.90;;;;;;5092930;28;20544;-70
2023/05/26 11:58:46;;;;;;;16.35;5.00;;;19.60;99.90;;;;;;5092943;28;20194;-71
2023/05/26 12:01:13;;;;;;;17.27;6.28;;;20.00;99.90;;;;;;5091976;28;20203;-71
2023/05/26 12:03:41;;;;;;;19.55;5.40;;;19.90;99.90;;;;;;5091820;28;20168;-71
2023/05/26 12:06:18;;;;;;;13.50;5.00;;;20.00;99.90;;;;;;5092642;28;20631;-71
2023/05/26 12:08:48;;;;;;;19.30;5.55;;;20.00;99.90;;;;;;5092180;28;20700;-71
2023/05/26 12:11:37;;;;;;;19.90;5.03;;;20.00;99.90;;;;;;5092524;28;20160;-71
2023/05/26 12:14:11;;;;;;;19.05;5.68;;;20.10;99.90;;;;;;5092790;28;20254;-71
2023/05/26 12:16:37;;;;;;;16.73;4.72;;;20.30;99.90;;;;;;5092473;28;20661;-71
2023/05/26 12:19:10;;;;;;;10.48;4.65;;;20.20;99.90;;;;;;5092660;28;20171;-71
2023/05/26 12:21:42;;;;;;;18.48;4.88;;;19.90;99.90;;;;;;5092307;28;20223;-72
2023/05/26 12:24:08;;;;;;;12.18;5.15;;;20.00;99.90;;;;;;5092185;28;20282;-72
2023/05/26 12:26:34;;;;;;;12.27;4.80;;;19.50;99.90;;;;;;5092270;28;20222;-71
2023/05/26 12:29:11;;;;;;;14.48;4.50;;;19.30;99.90;;;;;;5092844;28;20623;-71
2023/05/26 12:31:41;;;;;;;13.23;4.68;;;19.40;99.90;;;;;;5091849;28;20218;-71
2023/05/26 12:34:08;;;;;;;15.02;4.53;;;19.20;99.90;;;;;;5092647;28;20591;-71
2023/05/26 12:36:34;;;;;;;15.48;5.20;;;19.50;99.90;;;;;;5092172;28;20247;-71
2023/05/26 12:39:00;;;;;;;13.52;4.50;;;19.80;99.90;;;;;;5092686;28;20175;-70
2023/05/26 12:41:26;;;;;;;12.20;4.22;;;19.50;99.90;;;;;;5092012;28;20208;-71
2023/05/26 12:43:51;;;;;;;11.57;4.53;;;19.50;99.90;;;;;;5092697;28;20164;-72